createdAt,value
2022-08-04T00:00:50.406Z,30.13
2022-08-04T00:03:24.672Z,30.11
2022-08-04T00:06:05.570Z,30.13
2022-08-04T00:08:48.815Z,30.12
2022-08-04T00:11:25.329Z,30.12
2022-08-04T00:14:06.159Z,30.11
2022-08-04T00:16:39.073Z,30.12
2022-08-04T00:19:20.521Z,30.11
2022-08-04T00:21:59.921Z,30.10
2022-08-04T00:24:40.910Z,30.11
2022-08-04T00:27:15.792Z,30.12
2022-08-04T00:29:47.402Z,30.12
2022-08-04T00:32:34.344Z,30.13
2022-08-04T00:35:04.887Z,30.11
2022-08-04T00:37:39.166Z,30.14
2022-08-04T00:40:22.653Z,30.13
2022-08-04T00:43:03.609Z,30.14
2022-08-04T00:46:16.014Z,30.14
2022-08-04T00:49:02.894Z,30.14
2022-08-04T00:52:32.638Z,30.15
2022-08-04T00:55:08.565Z,30.14
2022-08-04T00:58:02.678Z,30.15
2022-08-04T01:00:35.673Z,30.14
2022-08-04T01:03:18.537Z,30.16
2022-08-04T01:06:12.058Z,30.19
2022-08-04T01:09:03.618Z,30.25
2022-08-04T01:11:58.029Z,30.37
2022-08-04T01:14:48.612Z,30.45
2022-08-04T01:17:43.183Z,30.51
2022-08-04T01:20:15.745Z,30.58
2022-08-04T01:23:11.458Z,30.65
2022-08-04T01:25:56.326Z,30.73
2022-08-04T01:28:58.675Z,30.80
2022-08-04T01:32:03.772Z,30.76
2022-08-04T01:34:59.161Z,30.83
2022-08-04T01:37:50.304Z,30.89
2022-08-04T01:40:18.628Z,30.96
2022-08-04T01:42:52.675Z,31.02
2022-08-04T01:45:26.736Z,31.06
2022-08-04T01:47:57.481Z,31.05
2022-08-04T01:50:34.767Z,31.07
2022-08-04T01:53:08.353Z,31.08
2022-08-04T01:55:54.264Z,31.05
2022-08-04T01:58:31.946Z,31.17
2022-08-04T02:01:11.091Z,31.09
2022-08-04T02:04:18.242Z,31.05
2022-08-04T02:06:58.403Z,31.17
2022-08-04T02:09:38.492Z,31.15
2022-08-04T02:12:31.212Z,31.08
2022-08-04T02:15:15.947Z,31.17
2022-08-04T02:18:12.852Z,31.12
2022-08-04T02:20:46.158Z,31.16
2022-08-04T02:23:29.114Z,31.13
2022-08-04T02:26:05.883Z,31.09
2022-08-04T02:28:55.709Z,31.06
2022-08-04T02:31:49.456Z,30.99
2022-08-04T02:34:28.233Z,30.90
2022-08-04T02:37:02.384Z,30.79
2022-08-04T02:39:41.540Z,30.75
2022-08-04T02:42:17.772Z,30.65
2022-08-04T02:44:50.463Z,30.63
2022-08-04T02:47:24.793Z,30.61
2022-08-04T02:50:14.833Z,30.54
2022-08-04T02:53:00.428Z,30.49
2022-08-04T02:55:29.861Z,30.46
2022-08-04T02:58:02.879Z,30.45
2022-08-04T03:00:33.211Z,30.42
2022-08-04T03:03:06.751Z,30.41
2022-08-04T03:06:01.221Z,30.38
2022-08-04T03:08:58.396Z,30.37
2022-08-04T03:11:49.468Z,30.37
2022-08-04T03:14:39.886Z,30.34
2022-08-04T03:17:52.905Z,30.32
2022-08-04T03:20:49.972Z,30.32
2022-08-04T03:23:35.816Z,30.32
2022-08-04T03:26:32.241Z,30.31
2022-08-04T03:29:36.124Z,30.29
2022-08-04T03:32:49.835Z,30.30
2022-08-04T03:35:53.023Z,30.30
2022-08-04T03:39:03.026Z,30.29
2022-08-04T03:42:03.998Z,30.28
2022-08-04T03:45:01.811Z,30.29
2022-08-04T03:48:09.525Z,30.25
2022-08-04T03:51:35.455Z,30.26
2022-08-04T03:54:36.665Z,30.27
2022-08-04T03:57:10.902Z,30.26
2022-08-04T04:00:00.598Z,30.26
2022-08-04T04:02:48.256Z,30.26
2022-08-04T04:05:41.721Z,30.27
2022-08-04T04:08:51.394Z,30.25
2022-08-04T04:11:32.607Z,30.20
2022-08-04T04:14:03.262Z,30.18
2022-08-04T04:17:08.907Z,30.12
2022-08-04T04:19:58.379Z,30.05
2022-08-04T04:22:46.025Z,29.98
2022-08-04T04:25:36.624Z,29.95
2022-08-04T04:28:44.169Z,29.93
2022-08-04T04:31:38.171Z,29.90
2022-08-04T04:34:26.543Z,29.89
2022-08-04T04:37:21.494Z,29.82
2022-08-04T04:39:56.551Z,29.85
2022-08-04T04:42:48.064Z,29.84
2022-08-04T04:45:24.686Z,29.84
2022-08-04T04:48:08.360Z,29.80
2022-08-04T04:50:51.146Z,29.80
2022-08-04T04:53:25.377Z,29.81
2022-08-04T04:56:31.587Z,29.82
2022-08-04T04:59:03.817Z,29.80
2022-08-04T05:02:06.640Z,29.79
2022-08-04T05:05:03.459Z,29.82
2022-08-04T05:07:53.036Z,29.81
2022-08-04T05:10:58.266Z,29.80
2022-08-04T05:14:37.544Z,29.81
2022-08-04T05:16:24.926Z,29.83
2022-08-04T05:19:12.558Z,29.85
2022-08-04T05:22:14.619Z,29.83
2022-08-04T05:24:56.035Z,29.83
2022-08-04T05:27:40.083Z,29.85
2022-08-04T05:30:18.686Z,29.86
2022-08-04T05:32:59.203Z,29.87
2022-08-04T05:36:20.822Z,29.89
2022-08-04T05:38:37.358Z,29.88
2022-08-04T05:41:07.041Z,29.93
2022-08-04T05:43:36.954Z,29.93
2022-08-04T05:46:08.435Z,29.95
2022-08-04T05:48:36.529Z,29.96
2022-08-04T05:51:09.275Z,29.95
2022-08-04T05:53:38.475Z,29.99
2022-08-04T05:56:07.593Z,29.98
2022-08-04T05:58:38.553Z,30.01
2022-08-04T06:01:16.585Z,30.05
2022-08-04T06:03:49.213Z,30.03
2022-08-04T06:06:21.536Z,29.93
2022-08-04T06:08:52.052Z,29.79
2022-08-04T06:11:27.517Z,29.70
2022-08-04T06:14:05.212Z,29.62
2022-08-04T06:16:51.062Z,29.59
2022-08-04T06:19:58.986Z,29.55
2022-08-04T06:22:28.590Z,29.54
2022-08-04T06:25:06.260Z,29.54
2022-08-04T06:27:43.259Z,29.50
2022-08-04T06:30:19.405Z,29.47
2022-08-04T06:33:03.667Z,29.49
2022-08-04T06:35:36.666Z,29.53
2022-08-04T06:38:04.990Z,29.53
2022-08-04T06:40:42.172Z,29.56
2022-08-04T06:43:13.496Z,29.53
2022-08-04T06:45:45.130Z,29.50
2022-08-04T06:48:18.098Z,29.45
2022-08-04T06:51:25.590Z,29.42
2022-08-04T06:53:48.268Z,29.42
2022-08-04T06:56:20.805Z,29.40
2022-08-04T06:58:55.429Z,29.38
2022-08-04T07:01:33.041Z,29.39
2022-08-04T07:04:01.083Z,29.36
2022-08-04T07:06:29.238Z,29.35
2022-08-04T07:09:04.309Z,29.36
2022-08-04T07:11:44.235Z,29.37
2022-08-04T07:14:21.365Z,29.34
2022-08-04T07:16:51.454Z,29.32
2022-08-04T07:19:24.506Z,29.32
2022-08-04T07:22:18.865Z,29.32
2022-08-04T07:24:48.683Z,29.33
2022-08-04T07:27:48.089Z,29.32
2022-08-04T07:30:13.090Z,29.31
2022-08-04T07:32:47.409Z,29.28
2022-08-04T07:36:05.149Z,29.30
2022-08-04T07:38:10.180Z,29.33
2022-08-04T07:40:43.948Z,29.32
2022-08-04T07:43:25.048Z,29.32
2022-08-04T07:45:53.860Z,29.29
2022-08-04T07:48:24.751Z,29.31
2022-08-04T07:50:56.556Z,29.29
2022-08-04T07:53:54.851Z,29.30
2022-08-04T07:56:17.038Z,29.31
2022-08-04T07:58:49.954Z,29.30
2022-08-04T08:01:25.778Z,29.29
2022-08-04T08:03:58.142Z,29.30
2022-08-04T08:06:31.282Z,29.29
2022-08-04T08:09:13.794Z,29.26
2022-08-04T08:12:35.252Z,29.26
2022-08-04T08:14:50.992Z,29.26
2022-08-04T08:17:29.823Z,29.21
2022-08-04T08:20:03.561Z,29.24
2022-08-04T08:22:43.000Z,29.25
2022-08-04T08:25:13.453Z,29.25
2022-08-04T08:27:56.059Z,29.27
2022-08-04T08:30:31.779Z,29.23
2022-08-04T08:33:12.915Z,29.28
2022-08-04T08:36:12.731Z,29.26
2022-08-04T08:39:15.091Z,29.26
2022-08-04T08:42:04.333Z,29.27
2022-08-04T08:44:59.162Z,29.30
2022-08-04T08:48:00.127Z,29.27
2022-08-04T08:51:02.946Z,29.26
2022-08-04T08:54:15.254Z,29.27
2022-08-04T08:57:07.446Z,29.26
2022-08-04T09:00:05.505Z,29.28
2022-08-04T09:03:14.892Z,29.28
2022-08-04T09:06:01.567Z,29.27
2022-08-04T09:08:38.322Z,29.25
2022-08-04T09:11:14.577Z,29.23
2022-08-04T09:13:50.539Z,29.23
2022-08-04T09:16:42.926Z,29.24
2022-08-04T09:19:39.075Z,29.26
2022-08-04T09:22:40.208Z,29.29
2022-08-04T09:25:29.106Z,29.36
2022-08-04T09:28:14.376Z,29.32
2022-08-04T09:31:19.296Z,29.30
2022-08-04T09:34:14.209Z,29.29
2022-08-04T09:36:56.693Z,29.28
2022-08-04T09:39:43.058Z,29.27
2022-08-04T09:42:37.401Z,29.28
2022-08-04T09:45:26.567Z,29.29
2022-08-04T09:48:08.136Z,29.28
2022-08-04T09:50:54.445Z,29.30
2022-08-04T09:53:43.211Z,29.28
2022-08-04T09:56:21.043Z,29.35
2022-08-04T09:59:19.682Z,29.35
2022-08-04T10:02:00.203Z,29.32
2022-08-04T10:04:34.770Z,29.28
2022-08-04T10:07:41.166Z,29.34
2022-08-04T10:10:25.023Z,29.29
2022-08-04T10:13:15.762Z,29.30
2022-08-04T10:16:27.701Z,29.30
2022-08-04T10:19:11.423Z,29.30
2022-08-04T10:22:28.646Z,29.28
2022-08-04T10:25:39.025Z,29.28
2022-08-04T10:28:30.733Z,29.31
2022-08-04T10:31:06.193Z,29.30
2022-08-04T10:33:53.945Z,29.31
2022-08-04T10:36:36.243Z,29.33
2022-08-04T10:39:42.279Z,29.37
2022-08-04T10:42:31.090Z,29.39
2022-08-04T10:45:54.366Z,29.40
2022-08-04T10:48:52.328Z,29.39
2022-08-04T10:51:58.608Z,29.38
2022-08-04T10:54:56.875Z,29.34
2022-08-04T10:57:44.133Z,29.36
2022-08-04T11:00:20.001Z,29.33
2022-08-04T11:02:58.674Z,29.31
2022-08-04T11:05:44.124Z,29.29
2022-08-04T11:08:21.684Z,29.30
2022-08-04T11:11:15.098Z,29.23
2022-08-04T11:13:54.696Z,29.24
2022-08-04T11:16:32.318Z,29.22
2022-08-04T11:19:44.705Z,29.22
2022-08-04T11:22:29.901Z,29.22
2022-08-04T11:25:17.963Z,29.21
2022-08-04T11:28:04.703Z,29.20
2022-08-04T11:30:51.012Z,29.19
2022-08-04T11:33:36.774Z,29.18
2022-08-04T11:36:22.680Z,29.19
2022-08-04T11:39:00.754Z,29.17
2022-08-04T11:41:38.325Z,29.16
2022-08-04T11:44:16.275Z,29.16
2022-08-04T11:46:55.243Z,29.19
2022-08-04T11:49:28.468Z,29.17
2022-08-04T11:52:02.872Z,29.17
2022-08-04T11:54:33.572Z,29.18
2022-08-04T11:57:03.062Z,29.14
2022-08-04T11:59:35.840Z,29.15
2022-08-04T12:02:34.936Z,29.15
2022-08-04T12:05:07.882Z,29.16
2022-08-04T12:07:47.189Z,29.15
2022-08-04T12:10:41.345Z,29.14
2022-08-04T12:13:28.842Z,29.14
2022-08-04T12:16:20.680Z,29.17
2022-08-04T12:19:04.256Z,29.12
2022-08-04T12:21:38.040Z,29.12
2022-08-04T12:24:17.917Z,29.12
2022-08-04T12:26:54.151Z,29.11
2022-08-04T12:29:24.484Z,29.10
2022-08-04T12:32:06.915Z,29.16
2022-08-04T12:34:56.444Z,29.20
2022-08-04T12:37:35.751Z,29.16
2022-08-04T12:40:29.272Z,29.17
2022-08-04T12:43:14.730Z,29.12
2022-08-04T12:45:51.107Z,29.13
2022-08-04T12:48:23.235Z,29.12
2022-08-04T12:50:56.378Z,29.15
2022-08-04T12:53:33.376Z,29.14
2022-08-04T12:56:27.713Z,29.13
2022-08-04T12:59:07.541Z,29.15
2022-08-04T13:02:08.319Z,29.16
2022-08-04T13:05:02.192Z,29.16
2022-08-04T13:07:43.960Z,29.15
2022-08-04T13:10:14.249Z,29.12
2022-08-04T13:13:11.986Z,29.09
2022-08-04T13:16:05.693Z,29.05
2022-08-04T13:18:46.273Z,29.11
2022-08-04T13:21:20.025Z,29.10
2022-08-04T13:24:10.510Z,29.11
2022-08-04T13:27:16.432Z,29.12
2022-08-04T13:30:00.644Z,29.14
2022-08-04T13:32:45.943Z,29.13
2022-08-04T13:35:16.293Z,29.13
2022-08-04T13:37:48.974Z,29.09
2022-08-04T13:40:25.593Z,29.10
2022-08-04T13:44:15.888Z,29.08
2022-08-04T13:46:07.879Z,29.10
2022-08-04T13:49:08.869Z,29.10
2022-08-04T13:51:58.401Z,29.11
2022-08-04T13:54:42.805Z,29.10
2022-08-04T13:57:19.682Z,29.12
2022-08-04T13:59:56.404Z,29.09
2022-08-04T14:02:46.941Z,29.13
2022-08-04T14:05:26.814Z,29.12
2022-08-04T14:08:04.978Z,29.11
2022-08-04T14:10:36.549Z,29.12
2022-08-04T14:13:08.048Z,29.11
2022-08-04T14:16:02.307Z,29.11
2022-08-04T14:18:35.347Z,29.06
2022-08-04T14:21:13.037Z,29.05
2022-08-04T14:23:47.529Z,29.09
2022-08-04T14:26:16.604Z,29.12
2022-08-04T14:29:25.687Z,29.10
2022-08-04T14:31:37.947Z,29.10
2022-08-04T14:34:28.925Z,29.10
2022-08-04T14:37:17.521Z,29.16
2022-08-04T14:40:17.403Z,29.21
2022-08-04T14:42:54.496Z,29.22
2022-08-04T14:45:54.151Z,29.20
2022-08-04T14:48:28.343Z,29.20
2022-08-04T14:50:55.893Z,29.13
2022-08-04T14:53:29.625Z,29.13
2022-08-04T14:56:01.086Z,29.12
2022-08-04T14:58:39.220Z,29.14
2022-08-04T15:01:12.417Z,29.10
2022-08-04T15:03:53.036Z,29.09
2022-08-04T15:06:26.094Z,29.04
2022-08-04T15:08:59.032Z,29.01
2022-08-04T15:11:30.857Z,28.98
2022-08-04T15:14:04.737Z,29.09
2022-08-04T15:16:35.437Z,29.09
2022-08-04T15:19:10.377Z,29.11
2022-08-04T15:21:46.919Z,29.04
2022-08-04T15:24:17.834Z,29.03
2022-08-04T15:26:52.238Z,29.07
2022-08-04T15:29:31.686Z,29.11
2022-08-04T15:32:43.120Z,29.09
2022-08-04T15:35:35.123Z,29.09
2022-08-04T15:38:27.810Z,29.11
2022-08-04T15:41:31.384Z,29.09
2022-08-04T15:44:23.729Z,29.08
2022-08-04T15:46:53.926Z,29.08
2022-08-04T15:49:30.327Z,29.09
2022-08-04T15:52:16.041Z,29.10
2022-08-04T15:54:51.963Z,29.08
2022-08-04T15:58:03.621Z,29.10
2022-08-04T16:01:16.950Z,29.10
2022-08-04T16:03:59.022Z,29.10
2022-08-04T16:06:42.441Z,29.14
2022-08-04T16:09:45.128Z,29.15
2022-08-04T16:12:53.420Z,29.08
2022-08-04T16:15:44.373Z,29.11
2022-08-04T16:18:27.441Z,29.08
2022-08-04T16:21:04.876Z,29.11
2022-08-04T16:24:08.147Z,29.09
2022-08-04T16:26:54.694Z,29.10
2022-08-04T16:29:30.868Z,29.15
2022-08-04T16:32:04.706Z,29.15
2022-08-04T16:34:55.219Z,29.17
2022-08-04T16:37:38.021Z,29.20
2022-08-04T16:40:24.401Z,29.18
2022-08-04T16:43:06.297Z,29.19
2022-08-04T16:45:52.813Z,29.16
2022-08-04T16:48:34.716Z,29.18
2022-08-04T16:51:10.301Z,29.18
2022-08-04T16:54:04.669Z,29.17
2022-08-04T16:56:44.966Z,29.16
2022-08-04T16:59:21.108Z,29.14
2022-08-04T17:01:53.703Z,29.16
2022-08-04T17:04:32.424Z,29.17
2022-08-04T17:07:12.242Z,29.16
2022-08-04T17:09:55.142Z,29.20
2022-08-04T17:12:36.579Z,29.20
2022-08-04T17:15:24.430Z,29.17
2022-08-04T17:18:18.761Z,29.15
2022-08-04T17:21:00.810Z,29.12
2022-08-04T17:24:15.755Z,29.12
2022-08-04T17:26:54.454Z,29.13
2022-08-04T17:29:42.862Z,29.12
2022-08-04T17:32:23.458Z,29.12
2022-08-04T17:35:03.619Z,29.14
2022-08-04T17:37:51.977Z,29.15
2022-08-04T17:40:29.201Z,29.15
2022-08-04T17:44:03.874Z,29.15
2022-08-04T17:46:30.177Z,29.15
2022-08-04T17:49:10.316Z,29.14
2022-08-04T17:52:06.745Z,29.17
2022-08-04T17:54:43.582Z,29.21
2022-08-04T17:57:23.176Z,29.19
2022-08-04T17:59:59.115Z,29.22
2022-08-04T18:02:53.016Z,29.21
2022-08-04T18:06:01.688Z,29.21
2022-08-04T18:08:40.020Z,29.19
2022-08-04T18:11:29.778Z,29.18
2022-08-04T18:14:28.755Z,29.22
2022-08-04T18:17:00.017Z,29.24
2022-08-04T18:19:31.347Z,29.23
2022-08-04T18:22:06.724Z,29.22
2022-08-04T18:24:56.264Z,29.25
2022-08-04T18:27:46.554Z,29.24
2022-08-04T18:30:38.322Z,29.22
2022-08-04T18:33:40.926Z,29.28
2022-08-04T18:36:35.737Z,29.26
2022-08-04T18:39:20.199Z,29.28
2022-08-04T18:42:14.289Z,29.30
2022-08-04T18:44:52.194Z,29.28
2022-08-04T18:47:30.521Z,29.30
2022-08-04T18:50:58.480Z,29.33
2022-08-04T18:53:01.066Z,29.30
2022-08-04T18:55:56.924Z,29.30
2022-08-04T18:58:40.968Z,29.32
2022-08-04T19:01:18.413Z,29.31
2022-08-04T19:03:54.415Z,29.31
2022-08-04T19:06:33.443Z,29.30
2022-08-04T19:09:01.256Z,29.33
2022-08-04T19:11:55.202Z,29.36
2022-08-04T19:14:31.139Z,29.33
2022-08-04T19:17:12.296Z,29.31
2022-08-04T19:19:50.842Z,29.34
2022-08-04T19:22:35.427Z,29.35
2022-08-04T19:25:10.361Z,29.37
2022-08-04T19:27:41.650Z,29.38
2022-08-04T19:30:12.385Z,29.36
2022-08-04T19:32:53.175Z,29.37
2022-08-04T19:35:31.973Z,29.39
2022-08-04T19:38:37.247Z,29.40
2022-08-04T19:41:14.838Z,29.41
2022-08-04T19:43:51.205Z,29.41
2022-08-04T19:46:25.618Z,29.41
2022-08-04T19:49:02.248Z,29.39
2022-08-04T19:51:44.117Z,29.37
2022-08-04T19:54:27.182Z,29.39
2022-08-04T19:57:00.465Z,29.42
2022-08-04T19:59:55.236Z,29.39
2022-08-04T20:02:32.701Z,29.36
2022-08-04T20:05:17.694Z,29.39
2022-08-04T20:08:11.879Z,29.40
2022-08-04T20:10:52.610Z,29.38
2022-08-04T20:13:30.940Z,29.41
2022-08-04T20:16:29.711Z,29.39
2022-08-04T20:19:05.502Z,29.43
2022-08-04T20:21:56.017Z,29.42
2022-08-04T20:24:37.792Z,29.44
2022-08-04T20:27:16.354Z,29.42
2022-08-04T20:29:56.369Z,29.42
2022-08-04T20:32:35.369Z,29.41
2022-08-04T20:35:16.704Z,29.41
2022-08-04T20:37:55.552Z,29.41
2022-08-04T20:40:34.084Z,29.42
2022-08-04T20:43:09.414Z,29.44
2022-08-04T20:45:57.124Z,29.43
2022-08-04T20:48:36.341Z,29.43
2022-08-04T20:51:18.040Z,29.41
2022-08-04T20:53:52.863Z,29.41
2022-08-04T20:56:30.565Z,29.40
2022-08-04T20:59:08.123Z,29.38
2022-08-04T21:01:48.749Z,29.41
2022-08-04T21:04:31.819Z,29.41
2022-08-04T21:07:06.311Z,29.40
2022-08-04T21:09:49.824Z,29.40
2022-08-04T21:12:29.161Z,29.40
2022-08-04T21:15:15.787Z,29.38
2022-08-04T21:18:12.115Z,29.41
2022-08-04T21:20:54.217Z,29.38
2022-08-04T21:23:34.290Z,29.38
2022-08-04T21:26:26.356Z,29.41
2022-08-04T21:29:01.552Z,29.40
2022-08-04T21:31:42.362Z,29.39
2022-08-04T21:34:38.106Z,29.37
2022-08-04T21:37:16.205Z,29.35
2022-08-04T21:40:14.686Z,29.38
2022-08-04T21:42:53.791Z,29.36
2022-08-04T21:45:36.017Z,29.39
2022-08-04T21:48:07.016Z,29.38
2022-08-04T21:50:50.599Z,29.35
2022-08-04T21:53:28.250Z,29.36
2022-08-04T21:56:18.061Z,29.40
2022-08-04T21:59:11.144Z,29.36
2022-08-04T22:01:50.235Z,29.37
2022-08-04T22:04:31.128Z,29.39
2022-08-04T22:07:04.536Z,29.48
2022-08-04T22:10:02.522Z,29.53
2022-08-04T22:12:45.686Z,29.64
2022-08-04T22:16:03.853Z,29.77
2022-08-04T22:18:30.129Z,29.85
2022-08-04T22:21:11.954Z,29.91
2022-08-04T22:23:47.699Z,29.92
2022-08-04T22:26:28.175Z,29.99
2022-08-04T22:29:06.132Z,29.97
2022-08-04T22:31:55.785Z,30.03
2022-08-04T22:34:45.544Z,30.12
2022-08-04T22:37:35.931Z,30.20
2022-08-04T22:40:26.258Z,30.21
2022-08-04T22:43:03.660Z,30.16
2022-08-04T22:46:00.089Z,30.19
2022-08-04T22:48:39.497Z,30.30
2022-08-04T22:51:27.255Z,30.25
2022-08-04T22:54:12.365Z,30.28
2022-08-04T22:56:50.706Z,30.30
2022-08-04T22:59:28.961Z,30.25
2022-08-04T23:02:07.457Z,30.21
2022-08-04T23:04:44.786Z,30.20
2022-08-04T23:07:42.337Z,30.13
2022-08-04T23:10:29.648Z,29.96
2022-08-04T23:13:04.076Z,29.88
2022-08-04T23:15:41.703Z,29.77
2022-08-04T23:18:15.111Z,29.74
2022-08-04T23:20:50.212Z,29.70
2022-08-04T23:23:33.303Z,29.62
2022-08-04T23:26:11.944Z,29.61
2022-08-04T23:28:48.616Z,29.54
2022-08-04T23:31:41.195Z,29.49
2022-08-04T23:34:27.382Z,29.43
2022-08-04T23:37:05.105Z,29.42
2022-08-04T23:40:15.645Z,29.42
2022-08-04T23:42:49.041Z,29.36
2022-08-04T23:45:54.306Z,29.36
2022-08-04T23:48:27.102Z,29.36
2022-08-04T23:51:02.866Z,29.34
2022-08-04T23:53:34.562Z,29.36
2022-08-04T23:56:21.318Z,29.34
2022-08-04T23:58:55.343Z,29.32
